Time;durP1;ratioP1;P1;durP2;ratioP2;P2;SDS_P1;SDS_P2;PMS_P1;PMS_P2;Temp;Humidity;BMP_temperature;BMP_pressure;BME280_temperature;BME280_humidity;BME280_pressure;Samples;Min_cycle;Max_cycle;Signal;HPM_P1;HPM_P2
2023/11/10 00:01:32;;;;;;;80.43;31.48;;;;;;;;;;4957513;28;20029;-69
2023/11/10 00:03:58;;;;;;;73.35;27.30;;;;;;;;;;4957627;28;20475;-70
2023/11/10 00:06:23;;;;;;;64.05;24.10;;;;;;;;;;4957390;28;20422;-70
2023/11/10 00:08:49;;;;;;;61.25;24.58;;;;;;;;;;4974897;28;20182;-70
2023/11/10 00:11:15;;;;;;;33.40;15.00;;;;;;;;;;4941558;28;20347;-70
2023/11/10 00:13:40;;;;;;;45.58;17.77;;;;;;;;;;4974581;28;20046;-69
2023/11/10 00:16:06;;;;;;;20.15;11.70;;;;;;;;;;4974242;28;20027;-70
2023/11/10 00:18:32;;;;;;;16.08;7.45;;;;;;;;;;4977801;28;20161;-70
2023/11/10 00:20:57;;;;;;;8.13;6.15;;;;;;;;;;4978450;28;20033;-71
2023/11/10 00:23:23;;;;;;;11.25;6.03;;;;;;;;;;4978422;28;20034;-71
2023/11/10 00:25:48;;;;;;;11.75;6.15;;;;;;;;;;4977943;28;20043;-71
2023/11/10 00:28:13;;;;;;;11.85;6.70;;;;;;;;;;4978233;28;20102;-71
2023/11/10 00:30:39;;;;;;;11.13;6.18;;;;;;;;;;4978225;28;20049;-71
2023/11/10 00:33:04;;;;;;;10.32;6.35;;;;;;;;;;4960692;28;20085;-71
2023/11/10 00:35:30;;;;;;;10.32;6.07;;;;;;;;;;4978032;28;20493;-68
2023/11/10 00:37:55;;;;;;;11.00;6.32;;;;;;;;;;4978123;28;20078;-68
2023/11/10 00:40:21;;;;;;;10.13;5.88;;;;;;;;;;4978162;28;20042;-68
2023/11/10 00:42:46;;;;;;;9.10;5.93;;;;;;;;;;4966608;28;20022;-68
2023/11/10 00:45:12;;;;;;;11.07;6.07;;;;;;;;;;4995982;28;20023;-68
2023/11/10 00:47:38;;;;;;;10.75;6.57;;;;;;;;;;4997587;28;20077;-68
2023/11/10 00:50:04;;;;;;;10.20;6.47;;;;;;;;;;4997591;28;20485;-68
2023/11/10 00:52:29;;;;;;;13.35;6.82;;;;;;;;;;4995970;28;20105;-68
2023/11/10 00:54:54;;;;;;;10.40;6.25;;;;;;;;;;4995620;28;20033;-69
2023/11/10 00:57:20;;;;;;;9.68;5.70;;;;;;;;;;4987245;28;20034;-69
2023/11/10 00:59:45;;;;;;;10.27;5.82;;;;;;;;;;4959655;28;20034;-68
2023/11/10 01:02:11;;;;;;;10.38;5.65;;;;;;;;;;4977399;28;20141;-68
2023/11/10 01:04:36;;;;;;;9.75;6.05;;;;;;;;;;4960285;28;20521;-68
2023/11/10 01:07:01;;;;;;;7.63;6.40;;;;;;;;;;4977534;28;20131;-69
2023/11/10 01:09:27;;;;;;;10.13;5.97;;;;;;;;;;4943633;28;20521;-69
2023/11/10 01:11:53;;;;;;;12.07;5.65;;;;;;;;;;4944189;28;20031;-69
2023/11/10 01:14:18;;;;;;;6.20;5.10;;;;;;;;;;4977441;28;20039;-69
2023/11/10 01:16:43;;;;;;;10.68;5.20;;;;;;;;;;4977463;28;20070;-68
2023/11/10 01:19:09;;;;;;;8.30;5.93;;;;;;;;;;4977433;28;20477;-69
2023/11/10 01:21:34;;;;;;;7.75;5.38;;;;;;;;;;4960266;28;20458;-68
2023/11/10 01:23:59;;;;;;;7.47;5.15;;;;;;;;;;4977105;28;20026;-69
2023/11/10 01:26:27;;;;;;;8.50;5.47;;;;;;;;;;4943844;28;20410;-68
2023/11/10 01:28:53;;;;;;;13.07;6.88;;;;;;;;;;4976751;28;20109;-69
2023/11/10 01:31:19;;;;;;;13.45;6.45;;;;;;;;;;4976767;28;20516;-69
2023/11/10 01:33:44;;;;;;;6.95;4.65;;;;;;;;;;4960017;28;20035;-72
2023/11/10 01:36:10;;;;;;;6.22;4.95;;;;;;;;;;4976603;28;20090;-74
2023/11/10 01:38:35;;;;;;;7.43;4.53;;;;;;;;;;4959636;28;20429;-72
2023/11/10 01:41:02;;;;;;;6.68;4.55;;;;;;;;;;4977093;28;20482;-72
2023/11/10 01:43:28;;;;;;;6.68;4.50;;;;;;;;;;4976633;28;20037;-72
2023/11/10 01:45:54;;;;;;;5.75;4.40;;;;;;;;;;4976424;28;20074;-72
2023/11/10 01:48:20;;;;;;;5.80;4.30;;;;;;;;;;4976922;28;20140;-71
2023/11/10 01:50:46;;;;;;;5.93;4.72;;;;;;;;;;4959338;28;20027;-71
2023/11/10 01:53:12;;;;;;;8.93;4.70;;;;;;;;;;4976841;28;20470;-73
2023/11/10 01:55:38;;;;;;;6.25;4.32;;;;;;;;;;4976466;28;20023;-73
2023/11/10 01:58:05;;;;;;;6.88;4.18;;;;;;;;;;4943404;28;20545;-73
2023/11/10 02:00:31;;;;;;;7.38;4.15;;;;;;;;;;4943209;28;20058;-73
2023/11/10 02:03:06;;;;;;;5.60;4.43;;;;;;;;;;4943444;28;20039;-73
2023/11/10 02:05:34;;;;;;;5.13;4.32;;;;;;;;;;4976627;28;20477;-73
2023/11/10 02:08:02;;;;;;;4.53;4.00;;;;;;;;;;4959300;28;20030;-73
2023/11/10 02:10:27;;;;;;;5.80;3.80;;;;;;;;;;4959369;28;20035;-73
2023/11/10 02:12:53;;;;;;;5.75;3.60;;;;;;;;;;4976407;28;20027;-73
2023/11/10 02:15:19;;;;;;;4.40;3.83;;;;;;;;;;4942745;28;20035;-71
2023/11/10 02:17:45;;;;;;;4.85;4.30;;;;;;;;;;4958516;28;20038;-71
2023/11/10 02:20:11;;;;;;;7.65;4.55;;;;;;;;;;4958619;28;20348;-72
2023/11/10 02:22:40;;;;;;;3.88;3.58;;;;;;;;;;4976392;28;20041;-72
2023/11/10 02:25:09;;;;;;;6.20;4.63;;;;;;;;;;4976249;28;20055;-72
2023/11/10 02:27:34;;;;;;;6.20;3.85;;;;;;;;;;4976062;28;20084;-71
2023/11/10 02:29:59;;;;;;;3.30;3.05;;;;;;;;;;4976114;28;20109;-72
2023/11/10 02:32:25;;;;;;;4.18;3.42;;;;;;;;;;4976122;28;20041;-71
2023/11/10 02:34:51;;;;;;;7.68;3.75;;;;;;;;;;4958444;28;20525;-71
2023/11/10 02:37:16;;;;;;;6.72;4.10;;;;;;;;;;4958407;28;20027;-72
2023/11/10 02:39:42;;;;;;;5.00;3.90;;;;;;;;;;4942256;28;20030;-71
2023/11/10 02:42:07;;;;;;;6.43;4.10;;;;;;;;;;4975841;28;20118;-72
2023/11/10 02:44:33;;;;;;;5.47;3.90;;;;;;;;;;4975757;28;20062;-72
2023/11/10 02:46:59;;;;;;;3.78;3.38;;;;;;;;;;4958411;28;20073;-70
2023/11/10 02:49:24;;;;;;;4.68;3.70;;;;;;;;;;4975856;28;20049;-71
2023/11/10 02:51:50;;;;;;;5.65;3.40;;;;;;;;;;4958348;28;20176;-71
2023/11/10 02:54:16;;;;;;;3.60;3.30;;;;;;;;;;4975257;28;20057;-71
2023/11/10 02:56:41;;;;;;;4.68;3.42;;;;;;;;;;4957972;28;20038;-70
2023/11/10 02:59:06;;;;;;;3.75;3.25;;;;;;;;;;4958219;28;20034;-71
2023/11/10 03:01:32;;;;;;;4.22;3.40;;;;;;;;;;4975436;28;20039;-71
2023/11/10 03:03:57;;;;;;;3.90;3.50;;;;;;;;;;4974950;28;20055;-71
2023/11/10 03:06:23;;;;;;;9.43;3.35;;;;;;;;;;4975357;28;20106;-71
2023/11/10 03:08:49;;;;;;;4.25;3.88;;;;;;;;;;4958078;28;20031;-63
2023/11/10 03:11:15;;;;;;;4.53;3.88;;;;;;;;;;4975560;28;20109;-63
2023/11/10 03:13:41;;;;;;;5.32;3.60;;;;;;;;;;4975405;28;20087;-63
2023/11/10 03:16:07;;;;;;;5.18;3.97;;;;;;;;;;4958005;28;20054;-64
2023/11/10 03:18:32;;;;;;;5.72;3.97;;;;;;;;;;4975308;28;20067;-63
2023/11/10 03:21:00;;;;;;;5.53;3.40;;;;;;;;;;4975047;28;20085;-64
2023/11/10 03:23:25;;;;;;;3.80;3.38;;;;;;;;;;4957538;28;20027;-63
2023/11/10 03:25:51;;;;;;;4.97;3.85;;;;;;;;;;4975435;28;20030;-63
2023/11/10 03:28:18;;;;;;;4.82;3.47;;;;;;;;;;4975433;28;20122;-64
2023/11/10 03:30:44;;;;;;;6.68;3.88;;;;;;;;;;4957815;28;20532;-63
2023/11/10 03:33:09;;;;;;;3.90;3.50;;;;;;;;;;4957802;28;20039;-64
2023/11/10 03:35:34;;;;;;;5.20;3.60;;;;;;;;;;4975177;28;20031;-63
2023/11/10 03:38:00;;;;;;;6.20;3.60;;;;;;;;;;4958061;28;20106;-64
2023/11/10 03:40:25;;;;;;;3.75;3.45;;;;;;;;;;4974961;28;20466;-62
2023/11/10 03:42:51;;;;;;;4.05;3.38;;;;;;;;;;4975272;28;20390;-62
2023/11/10 03:45:17;;;;;;;6.90;4.00;;;;;;;;;;4974960;28;20046;-62
2023/11/10 03:47:42;;;;;;;3.90;3.42;;;;;;;;;;4957892;28;20118;-62
2023/11/10 03:50:08;;;;;;;5.05;3.40;;;;;;;;;;4957785;28;20035;-63
2023/11/10 03:52:33;;;;;;;6.10;4.07;;;;;;;;;;4944937;28;20073;-62
2023/11/10 03:54:59;;;;;;;7.00;5.40;;;;;;;;;;4979234;28;20041;-63
2023/11/10 03:57:24;;;;;;;5.55;4.75;;;;;;;;;;4978599;28;20162;-65
2023/11/10 03:59:50;;;;;;;7.93;5.07;;;;;;;;;;4978247;28;20034;-65
2023/11/10 04:02:15;;;;;;;8.82;5.43;;;;;;;;;;4961226;28;20054;-65
2023/11/10 04:04:41;;;;;;;10.05;5.32;;;;;;;;;;4961137;28;20045;-63
2023/11/10 04:07:06;;;;;;;8.48;5.28;;;;;;;;;;4978577;28;20038;-65
2023/11/10 04:09:33;;;;;;;8.02;5.43;;;;;;;;;;4960863;28;20027;-65
2023/11/10 04:12:01;;;;;;;7.68;5.18;;;;;;;;;;4978571;28;20072;-72
2023/11/10 04:14:26;;;;;;;9.95;5.13;;;;;;;;;;4960793;28;20074;-72
2023/11/10 04:16:52;;;;;;;8.38;5.47;;;;;;;;;;4978362;28;20045;-72
2023/11/10 04:19:17;;;;;;;10.02;5.90;;;;;;;;;;4978459;28;20026;-72
2023/11/10 04:21:43;;;;;;;10.25;6.35;;;;;;;;;;4960930;28;20377;-72
2023/11/10 04:24:09;;;;;;;11.88;6.43;;;;;;;;;;4960743;28;20041;-73
2023/11/10 04:26:34;;;;;;;13.48;7.15;;;;;;;;;;4960867;28;20022;-73
2023/11/10 04:29:00;;;;;;;8.52;6.13;;;;;;;;;;4977902;28;20160;-72
2023/11/10 04:31:25;;;;;;;9.07;6.05;;;;;;;;;;4944784;28;20046;-72
2023/11/10 04:33:50;;;;;;;12.75;6.22;;;;;;;;;;4961026;28;20034;-70
2023/11/10 04:36:16;;;;;;;10.88;6.35;;;;;;;;;;4978270;28;20166;-70
2023/11/10 04:38:43;;;;;;;6.85;5.20;;;;;;;;;;4978214;28;20355;-70
2023/11/10 04:41:09;;;;;;;6.60;5.25;;;;;;;;;;4977722;28;20081;-71
2023/11/10 04:43:34;;;;;;;6.53;5.10;;;;;;;;;;4977207;28;20110;-71
2023/11/10 04:46:04;;;;;;;9.52;5.53;;;;;;;;;;4978265;28;20074;-71
2023/11/10 04:48:29;;;;;;;10.35;6.35;;;;;;;;;;4960765;28;20079;-72
2023/11/10 04:50:54;;;;;;;10.80;5.97;;;;;;;;;;4977878;28;20062;-72
2023/11/10 04:53:20;;;;;;;8.15;5.95;;;;;;;;;;4977924;28;20045;-72
2023/11/10 04:55:45;;;;;;;10.40;6.28;;;;;;;;;;4977841;28;20022;-71
2023/11/10 04:58:10;;;;;;;7.80;5.63;;;;;;;;;;4960634;28;20039;-71
2023/11/10 05:00:36;;;;;;;7.88;5.75;;;;;;;;;;4977954;28;20034;-71
2023/11/10 05:03:03;;;;;;;9.23;6.28;;;;;;;;;;4977197;28;20046;-71
2023/11/10 05:05:29;;;;;;;7.93;5.70;;;;;;;;;;4977505;28;20082;-71
2023/11/10 05:07:54;;;;;;;13.00;6.95;;;;;;;;;;4977635;28;20027;-72
2023/11/10 05:10:20;;;;;;;10.88;6.90;;;;;;;;;;5014789;23;20088;-64
2023/11/10 05:12:45;;;;;;;11.55;6.45;;;;;;;;;;5016176;28;20022;-64
2023/11/10 05:15:12;;;;;;;11.18;6.93;;;;;;;;;;5016578;28;20033;-66
2023/11/10 05:17:39;;;;;;;8.20;5.82;;;;;;;;;;5015290;28;20038;-66
2023/11/10 05:20:05;;;;;;;11.95;8.38;;;;;;;;;;5015092;28;20109;-64
2023/11/10 05:22:32;;;;;;;20.38;11.38;;;;;;;;;;5016291;28;20057;-66
2023/11/10 05:24:58;;;;;;;19.67;12.30;;;;;;;;;;5016074;28;20053;-66
2023/11/10 05:27:24;;;;;;;12.70;9.20;;;;;;;;;;4998311;28;20064;-65
2023/11/10 05:29:49;;;;;;;17.77;11.63;;;;;;;;;;5015339;28;20061;-64
2023/11/10 05:32:15;;;;;;;23.40;16.42;;;;;;;;;;5014378;28;20473;-63
2023/11/10 05:34:40;;;;;;;32.22;19.27;;;;;;;;;;5015679;28;20095;-65
2023/11/10 05:37:10;;;;;;;13.98;9.75;;;;;;;;;;5016102;28;20162;-63
2023/11/10 05:39:35;;;;;;;19.30;13.20;;;;;;;;;;5016221;28;20030;-65
2023/11/10 05:42:00;;;;;;;32.55;19.73;;;;;;;;;;5015327;28;20503;-65
2023/11/10 05:44:26;;;;;;;46.35;27.63;;;;;;;;;;5015547;28;20083;-66
2023/11/10 05:46:51;;;;;;;61.92;39.35;;;;;;;;;;5015290;28;20072;-65
2023/11/10 05:49:17;;;;;;;72.28;44.42;;;;;;;;;;5015696;28;20042;-67
2023/11/10 05:51:42;;;;;;;40.80;25.83;;;;;;;;;;5014178;28;20117;-67
2023/11/10 05:54:08;;;;;;;32.20;20.83;;;;;;;;;;5013886;28;20425;-67
2023/11/10 05:56:33;;;;;;;14.32;10.25;;;;;;;;;;5015246;28;20034;-67
2023/11/10 05:59:00;;;;;;;9.90;6.60;;;;;;;;;;5014362;28;20029;-67
2023/11/10 06:01:28;;;;;;;9.93;5.63;;;;;;;;;;5015520;28;20010;-67
2023/11/10 06:03:53;;;;;;;6.38;4.65;;;;;;;;;;5013755;28;20036;-69
2023/11/10 06:06:19;;;;;;;5.95;4.60;;;;;;;;;;5014836;28;20026;-69
2023/11/10 06:08:44;;;;;;;7.50;4.78;;;;;;;;;;5015529;28;20066;-69
2023/11/10 06:11:16;;;;;;;8.10;5.40;;;;;;;;;;5030244;28;20091;-68
2023/11/10 06:13:42;;;;;;;9.55;4.90;;;;;;;;;;5035232;28;20072;-68
2023/11/10 06:16:08;;;;;;;8.93;5.63;;;;;;;;;;5034028;28;20073;-69
2023/11/10 06:18:33;;;;;;;12.70;6.63;;;;;;;;;;5034672;28;20025;-70
2023/11/10 06:20:58;;;;;;;28.40;14.80;;;;;;;;;;5034877;28;20460;-73
2023/11/10 06:23:24;;;;;;;31.38;16.70;;;;;;;;;;5016959;28;20389;-73
2023/11/10 06:25:49;;;;;;;39.55;18.73;;;;;;;;;;5034371;28;20358;-73
2023/11/10 06:28:15;;;;;;;37.72;20.40;;;;;;;;;;5016387;28;20041;-72
2023/11/10 06:30:40;;;;;;;40.50;22.17;;;;;;;;;;5016794;28;20029;-72
2023/11/10 06:33:05;;;;;;;55.60;29.25;;;;;;;;;;5033984;28;20032;-70
2023/11/10 06:35:31;;;;;;;56.80;31.73;;;;;;;;;;5034269;28;20060;-70
2023/11/10 06:37:56;;;;;;;51.90;27.92;;;;;;;;;;5016577;28;20082;-70
2023/11/10 06:40:22;;;;;;;20.95;12.73;;;;;;;;;;5017167;28;20017;-70
2023/11/10 06:42:47;;;;;;;17.77;9.57;;;;;;;;;;5016411;28;20412;-70
2023/11/10 06:45:12;;;;;;;34.65;23.17;;;;;;;;;;5033794;28;20025;-70
2023/11/10 06:47:38;;;;;;;19.60;11.70;;;;;;;;;;5016453;28;20404;-71
2023/11/10 06:50:04;;;;;;;30.63;16.42;;;;;;;;;;5034635;28;20037;-71
2023/11/10 06:52:29;;;;;;;33.88;17.58;;;;;;;;;;5034296;28;20041;-71
2023/11/10 06:54:54;;;;;;;38.78;18.50;;;;;;;;;;5033850;28;20461;-71
2023/11/10 06:57:20;;;;;;;32.60;17.75;;;;;;;;;;5016076;28;20125;-71
2023/11/10 06:59:46;;;;;;;40.78;25.42;;;;;;;;;;5032493;28;20032;-71
2023/11/10 07:02:12;;;;;;;24.15;15.07;;;;;;;;;;5033428;28;20475;-71
2023/11/10 07:04:38;;;;;;;21.85;12.55;;;;;;;;;;5033815;28;20041;-71
2023/11/10 07:07:03;;;;;;;22.52;13.68;;;;;;;;;;5033970;28;20025;-71
2023/11/10 07:09:29;;;;;;;26.13;14.52;;;;;;;;;;5033725;28;20438;-70
2023/11/10 07:11:54;;;;;;;33.05;16.33;;;;;;;;;;5033907;28;20040;-70
2023/11/10 07:14:19;;;;;;;29.65;15.82;;;;;;;;;;5033762;28;20030;-70
2023/11/10 07:16:45;;;;;;;29.08;16.10;;;;;;;;;;5016620;28;20060;-70
2023/11/10 07:19:10;;;;;;;34.38;16.75;;;;;;;;;;5015925;28;20048;-70
2023/11/10 07:21:36;;;;;;;28.17;16.33;;;;;;;;;;5016033;28;20159;-70
2023/11/10 07:24:01;;;;;;;29.02;15.77;;;;;;;;;;5016601;28;20085;-70
2023/11/10 07:26:26;;;;;;;30.67;16.42;;;;;;;;;;5033209;28;20038;-70
2023/11/10 07:28:52;;;;;;;36.38;16.50;;;;;;;;;;5015818;28;20152;-70
2023/11/10 07:31:17;;;;;;;28.50;14.65;;;;;;;;;;5033140;28;20030;-70
2023/11/10 07:33:42;;;;;;;20.33;13.48;;;;;;;;;;5033502;28;20025;-70
2023/11/10 07:36:09;;;;;;;21.23;14.68;;;;;;;;;;5015402;28;20045;-70
2023/11/10 07:38:35;;;;;;;39.00;23.58;;;;;;;;;;5033315;28;20013;-70
2023/11/10 07:41:03;;;;;;;55.65;33.17;;;;;;;;;;5033314;28;20036;-71
2023/11/10 07:43:28;;;;;;;53.45;32.63;;;;;;;;;;5032796;28;20040;-70
2023/11/10 07:45:54;;;;;;;56.15;32.67;;;;;;;;;;5015390;28;20108;-70
2023/11/10 07:48:19;;;;;;;38.00;22.95;;;;;;;;;;5015347;28;20029;-70
2023/11/10 07:50:45;;;;;;;26.75;14.80;;;;;;;;;;5015487;28;20041;-70
2023/11/10 07:53:12;;;;;;;24.75;13.88;;;;;;;;;;5015408;28;20025;-70
2023/11/10 07:55:38;;;;;;;18.20;11.75;;;;;;;;;;5047815;28;20477;-74
2023/11/10 07:58:05;;;;;;;17.55;9.85;;;;;;;;;;5032460;28;20030;-73
2023/11/10 08:00:30;;;;;;;14.88;9.38;;;;;;;;;;5032686;28;20028;-74
2023/11/10 08:02:56;;;;;;;14.55;9.00;;;;;;;;;;5032790;28;20017;-74
2023/11/10 08:05:22;;;;;;;12.55;8.25;;;;;;;;;;5015253;28;20468;-74
2023/11/10 08:07:48;;;;;;;10.70;6.65;;;;;;;;;;5032568;28;20036;-74
2023/11/10 08:10:16;;;;;;;17.48;7.90;;;;;;;;;;5032922;28;20119;-74
2023/11/10 08:12:42;;;;;;;38.53;16.80;;;;;;;;;;5015343;28;20030;-73
2023/11/10 08:15:08;;;;;;;25.17;13.93;;;;;;;;;;5048450;28;20040;-73
2023/11/10 08:17:34;;;;;;;7.70;5.93;;;;;;;;;;5015063;28;20043;-74
2023/11/10 08:19:59;;;;;;;10.82;7.18;;;;;;;;;;5032878;28;20096;-74
2023/11/10 08:22:25;;;;;;;12.88;7.43;;;;;;;;;;5032228;28;20033;-74
2023/11/10 08:24:51;;;;;;;7.45;5.18;;;;;;;;;;5014802;28;20104;-74
2023/11/10 08:27:16;;;;;;;6.32;4.68;;;;;;;;;;5032705;28;20049;-74
2023/11/10 08:29:42;;;;;;;14.82;8.13;;;;;;;;;;5032383;28;20033;-73
2023/11/10 08:32:08;;;;;;;22.98;12.73;;;;;;;;;;5014893;28;20490;-73
2023/11/10 08:34:33;;;;;;;9.70;6.55;;;;;;;;;;5032120;28;20025;-73
2023/11/10 08:36:58;;;;;;;9.50;6.38;;;;;;;;;;5032686;28;20033;-73
2023/11/10 08:39:24;;;;;;;14.20;6.80;;;;;;;;;;5017698;28;20156;-73
2023/11/10 08:41:50;;;;;;;10.75;6.15;;;;;;;;;;5036378;28;20026;-73
2023/11/10 08:44:16;;;;;;;8.00;5.22;;;;;;;;;;5018472;28;20094;-73
2023/11/10 08:46:43;;;;;;;6.35;5.03;;;;;;;;;;5036283;28;20556;-73
2023/11/10 08:49:09;;;;;;;5.32;3.92;;;;;;;;;;5018755;28;20064;-73
2023/11/10 08:51:37;;;;;;;4.63;3.45;;;;;;;;;;5036181;28;20119;-74
2023/11/10 08:54:03;;;;;;;4.03;3.55;;;;;;;;;;5036103;28;20476;-74
2023/11/10 08:56:29;;;;;;;6.10;3.80;;;;;;;;;;5018239;28;20036;-74
2023/11/10 08:58:54;;;;;;;5.13;4.07;;;;;;;;;;5035855;28;20025;-74
2023/11/10 09:01:19;;;;;;;6.03;3.70;;;;;;;;;;5035832;28;20021;-74
2023/11/10 09:03:48;;;;;;;5.38;3.33;;;;;;;;;;5017802;28;20040;-74
2023/11/10 09:06:13;;;;;;;6.35;3.53;;;;;;;;;;5017830;28;20364;-73
2023/11/10 09:08:41;;;;;;;3.75;3.30;;;;;;;;;;5035620;28;20116;-74
2023/11/10 09:11:06;;;;;;;6.95;3.63;;;;;;;;;;5035480;28;20051;-75
2023/11/10 09:13:32;;;;;;;7.75;3.72;;;;;;;;;;5035677;28;20029;-74
2023/11/10 09:15:58;;;;;;;6.15;3.80;;;;;;;;;;5017457;28;20048;-74
2023/11/10 09:18:23;;;;;;;5.28;3.88;;;;;;;;;;5017357;28;20113;-74
2023/11/10 09:20:49;;;;;;;7.63;4.07;;;;;;;;;;5017599;28;20032;-74
2023/11/10 09:23:14;;;;;;;5.82;3.85;;;;;;;;;;5034936;28;20112;-74
2023/11/10 09:25:39;;;;;;;7.65;4.80;;;;;;;;;;5017175;28;20760;-74
2023/11/10 09:28:05;;;;;;;6.32;4.35;;;;;;;;;;5017835;28;20377;-74
2023/11/10 09:30:33;;;;;;;6.88;4.22;;;;;;;;;;5035309;28;20024;-74
2023/11/10 09:32:59;;;;;;;8.77;4.28;;;;;;;;;;5017537;28;20029;-73
2023/11/10 09:35:26;;;;;;;7.07;3.45;;;;;;;;;;5035038;28;20039;-73
2023/11/10 09:37:51;;;;;;;5.78;3.70;;;;;;;;;;5017251;28;20400;-73
2023/11/10 09:40:19;;;;;;;3.70;3.30;;;;;;;;;;5035348;28;20033;-74
2023/11/10 09:42:46;;;;;;;5.13;3.28;;;;;;;;;;5034467;28;20044;-74
2023/11/10 09:45:14;;;;;;;3.70;2.92;;;;;;;;;;5016208;28;20122;-73
2023/11/10 09:47:40;;;;;;;3.60;2.92;;;;;;;;;;5033477;28;20064;-74
2023/11/10 09:50:08;;;;;;;3.08;2.83;;;;;;;;;;5033574;28;20099;-73
2023/11/10 09:52:34;;;;;;;3.53;2.83;;;;;;;;;;5016503;28;20030;-73
2023/11/10 09:54:59;;;;;;;2.65;2.45;;;;;;;;;;5034365;28;20503;-73
2023/11/10 09:57:26;;;;;;;2.55;2.35;;;;;;;;;;5035365;28;20037;-73
2023/11/10 09:59:52;;;;;;;3.22;2.45;;;;;;;;;;5034969;28;20043;-73
2023/11/10 10:02:18;;;;;;;3.63;2.88;;;;;;;;;;5034947;28;20025;-73
2023/11/10 10:04:43;;;;;;;3.42;2.53;;;;;;;;;;5017503;28;20389;-73
2023/11/10 10:07:10;;;;;;;3.90;3.15;;;;;;;;;;5034788;28;20076;-73
2023/11/10 10:09:36;;;;;;;5.55;3.75;;;;;;;;;;5034996;28;20029;-73
2023/11/10 10:12:02;;;;;;;5.43;3.67;;;;;;;;;;5017096;28;20068;-73
2023/11/10 10:14:28;;;;;;;6.95;3.70;;;;;;;;;;5017137;28;20084;-73
2023/11/10 10:16:55;;;;;;;3.88;2.90;;;;;;;;;;5016908;28;20025;-73
2023/11/10 10:19:24;;;;;;;3.53;2.63;;;;;;;;;;5017322;28;20037;-73
2023/11/10 10:21:50;;;;;;;2.58;2.33;;;;;;;;;;5034788;28;20102;-73
2023/11/10 10:24:17;;;;;;;5.15;2.60;;;;;;;;;;5041299;23;20527;-70
2023/11/10 10:26:42;;;;;;;2.97;2.38;;;;;;;;;;5034429;28;20481;-70
2023/11/10 10:29:08;;;;;;;3.83;2.55;;;;;;;;;;5033703;28;20040;-70
2023/11/10 10:31:33;;;;;;;2.90;2.63;;;;;;;;;;5034204;28;20476;-73
2023/11/10 10:34:04;;;;;;;3.80;2.92;;;;;;;;;;5016507;28;20030;-70
2023/11/10 10:36:33;;;;;;;4.43;2.90;;;;;;;;;;5016825;28;20033;-70
2023/11/10 10:39:00;;;;;;;2.95;2.40;;;;;;;;;;5016510;28;20029;-70
2023/11/10 10:41:26;;;;;;;2.65;2.45;;;;;;;;;;5017235;28;20029;-70
2023/11/10 10:43:52;;;;;;;2.88;2.50;;;;;;;;;;5034775;28;20044;-70
2023/11/10 10:46:21;;;;;;;2.80;2.50;;;;;;;;;;5016539;28;20061;-70
2023/11/10 10:48:50;;;;;;;5.22;2.70;;;;;;;;;;5034233;28;20042;-70
2023/11/10 10:51:17;;;;;;;5.93;3.13;;;;;;;;;;5016395;28;20149;-70
2023/11/10 10:53:43;;;;;;;3.97;2.78;;;;;;;;;;5034178;28;20026;-70
2023/11/10 10:56:08;;;;;;;4.32;2.92;;;;;;;;;;5033945;28;20021;-70
2023/11/10 10:58:34;;;;;;;3.08;2.78;;;;;;;;;;5033973;28;20523;-70
2023/11/10 11:01:03;;;;;;;4.97;2.75;;;;;;;;;;5033305;28;20048;-70
2023/11/10 11:03:31;;;;;;;2.92;2.50;;;;;;;;;;5034287;28;20112;-70
2023/11/10 11:06:01;;;;;;;3.00;2.28;;;;;;;;;;5034233;28;20037;-70
2023/11/10 11:08:44;;;;;;;4.97;2.38;;;;;;;;;;5034377;28;20112;-70
2023/11/10 11:11:39;;;;;;;5.05;2.90;;;;;;;;;;5032768;28;20034;-70
2023/11/10 11:14:09;;;;;;;3.40;2.92;;;;;;;;;;5016636;28;20040;-70
2023/11/10 11:16:34;;;;;;;;;;;;;;;;;;5034214;28;20080;-70
2023/11/10 11:19:01;;;;;;;2.97;2.53;;;;;;;;;;5034061;28;20324;-70
2023/11/10 11:21:26;;;;;;;3.38;2.78;;;;;;;;;;5033530;28;20479;-70
2023/11/10 11:23:52;;;;;;;3.92;2.75;;;;;;;;;;5014760;28;20038;-70
2023/11/10 11:26:17;;;;;;;3.60;2.72;;;;;;;;;;5033654;28;20037;-70
2023/11/10 11:28:44;;;;;;;5.30;3.38;;;;;;;;;;5009908;28;20029;-70
2023/11/10 11:31:11;;;;;;;3.45;2.88;;;;;;;;;;5031671;28;20507;-70
2023/11/10 11:33:51;;;;;;;4.20;3.30;;;;;;;;;;5030751;28;20168;-70
2023/11/10 11:36:18;;;;;;;4.10;3.00;;;;;;;;;;4996083;28;20037;-70
2023/11/10 11:38:44;;;;;;;4.03;3.17;;;;;;;;;;5012756;28;20025;-70
2023/11/10 11:41:12;;;;;;;4.57;3.17;;;;;;;;;;5029422;28;20021;-70
2023/11/10 11:43:57;;;;;;;5.82;3.65;;;;;;;;;;5029168;28;20045;-70
2023/11/10 11:46:34;;;;;;;8.30;2.97;;;;;;;;;;5029265;28;20041;-70
2023/11/10 11:49:01;;;;;;;2.97;2.65;;;;;;;;;;5030087;28;20045;-70
2023/11/10 11:51:28;;;;;;;4.40;2.65;;;;;;;;;;5030642;28;20120;-68
2023/11/10 11:53:53;;;;;;;3.60;2.60;;;;;;;;;;5030775;28;20037;-74
2023/11/10 11:56:18;;;;;;;3.42;2.17;;;;;;;;;;5011952;28;20563;-65
2023/11/10 11:58:44;;;;;;;2.42;1.90;;;;;;;;;;5030181;28;20242;-70
2023/11/10 12:01:10;;;;;;;2.58;2.38;;;;;;;;;;5012627;28;20034;-70
2023/11/10 12:03:35;;;;;;;3.35;2.28;;;;;;;;;;5029949;28;20030;-70
2023/11/10 12:06:03;;;;;;;3.95;2.40;;;;;;;;;;5029542;28;20164;-70
2023/11/10 12:08:28;;;;;;;2.40;2.20;;;;;;;;;;5029233;28;20067;-71
2023/11/10 12:10:53;;;;;;;3.65;2.40;;;;;;;;;;5011839;28;20361;-70
2023/11/10 12:13:20;;;;;;;3.53;2.70;;;;;;;;;;5031892;28;20480;-67
2023/11/10 12:15:46;;;;;;;4.82;3.35;;;;;;;;;;5033555;28;20026;-67
2023/11/10 12:18:12;;;;;;;5.03;3.30;;;;;;;;;;5015996;28;20798;-67
2023/11/10 12:20:37;;;;;;;3.47;2.67;;;;;;;;;;5033616;28;20101;-67
2023/11/10 12:23:06;;;;;;;3.25;2.67;;;;;;;;;;5048727;28;20060;-68
2023/11/10 12:25:35;;;;;;;3.42;2.80;;;;;;;;;;5015681;28;20048;-67
2023/11/10 12:28:00;;;;;;;5.00;3.17;;;;;;;;;;5033321;28;20037;-67
2023/11/10 12:30:26;;;;;;;4.00;2.80;;;;;;;;;;5032812;28;20025;-67
2023/11/10 12:32:52;;;;;;;3.90;2.40;;;;;;;;;;5031278;28;20424;-67
2023/11/10 12:35:21;;;;;;;6.13;2.90;;;;;;;;;;5015228;28;20478;-68
2023/11/10 12:37:47;;;;;;;2.85;2.35;;;;;;;;;;5014801;28;20061;-68
2023/11/10 12:40:13;;;;;;;3.55;2.70;;;;;;;;;;5033317;28;20653;-67
2023/11/10 12:42:39;;;;;;;4.22;2.50;;;;;;;;;;5032613;28;20096;-67
2023/11/10 12:45:12;;;;;;;3.58;2.75;;;;;;;;;;5014763;28;20076;-67
2023/11/10 12:47:42;;;;;;;2.97;2.50;;;;;;;;;;5033207;28;20040;-67
2023/11/10 12:50:15;;;;;;;2.70;2.47;;;;;;;;;;5033287;28;20211;-67
2023/11/10 12:52:41;;;;;;;2.50;2.30;;;;;;;;;;5048385;28;20392;-67
2023/11/10 12:55:08;;;;;;;3.78;2.40;;;;;;;;;;5032811;28;20029;-67
2023/11/10 12:57:34;;;;;;;2.88;2.55;;;;;;;;;;5014954;28;20029;-67
2023/11/10 13:00:17;;;;;;;2.95;2.65;;;;;;;;;;5032686;28;20464;-67
2023/11/10 13:02:43;;;;;;;2.75;2.50;;;;;;;;;;5015390;28;20042;-67
2023/11/10 13:05:10;;;;;;;4.93;2.60;;;;;;;;;;5034265;28;20029;-67
2023/11/10 13:07:35;;;;;;;2.50;2.30;;;;;;;;;;5048299;28;20029;-67
2023/11/10 13:10:01;;;;;;;4.10;3.60;;;;;;;;;;5031870;28;20052;-67
2023/11/10 13:12:26;;;;;;;5.32;3.58;;;;;;;;;;5032772;28;20041;-67
2023/11/10 13:14:52;;;;;;;2.90;2.50;;;;;;;;;;5014652;28;20096;-67
2023/11/10 13:17:18;;;;;;;3.97;3.15;;;;;;;;;;5014146;28;20040;-67
2023/11/10 13:19:47;;;;;;;4.35;3.25;;;;;;;;;;5014646;28;20030;-67
2023/11/10 13:22:16;;;;;;;9.65;4.75;;;;;;;;;;5014666;28;20045;-67
2023/11/10 13:24:42;;;;;;;5.85;4.88;;;;;;;;;;5031455;28;20040;-67
2023/11/10 13:27:12;;;;;;;2.95;2.65;;;;;;;;;;5014462;28;20124;-67
2023/11/10 13:29:44;;;;;;;3.38;2.60;;;;;;;;;;5014648;28;20556;-67
2023/11/10 13:32:13;;;;;;;2.63;2.40;;;;;;;;;;5013444;28;20056;-68
2023/11/10 13:34:42;;;;;;;2.78;2.58;;;;;;;;;;5031218;28;20041;-67
2023/11/10 13:37:09;;;;;;;2.78;2.20;;;;;;;;;;5031405;28;20041;-67
2023/11/10 13:39:35;;;;;;;3.95;3.28;;;;;;;;;;5032278;28;20045;-67
2023/11/10 13:42:00;;;;;;;6.03;4.82;;;;;;;;;;5015020;28;20103;-67
2023/11/10 13:44:26;;;;;;;6.82;4.97;;;;;;;;;;5032305;28;20068;-67
2023/11/10 13:46:52;;;;;;;4.13;3.53;;;;;;;;;;5014874;28;20818;-67
2023/11/10 13:49:17;;;;;;;3.30;2.97;;;;;;;;;;5031620;28;20040;-67
2023/11/10 13:51:42;;;;;;;3.17;2.63;;;;;;;;;;5031573;28;20124;-67
2023/11/10 13:54:08;;;;;;;4.45;2.80;;;;;;;;;;5013265;28;20099;-67
2023/11/10 13:56:36;;;;;;;3.83;3.10;;;;;;;;;;5031063;28;20044;-67
2023/11/10 13:59:02;;;;;;;3.35;3.05;;;;;;;;;;5031156;28;20123;-67
2023/11/10 14:01:27;;;;;;;3.97;3.20;;;;;;;;;;5013314;28;20068;-67
2023/11/10 14:03:52;;;;;;;5.47;3.58;;;;;;;;;;5031390;28;20049;-67
2023/11/10 14:06:18;;;;;;;6.45;3.90;;;;;;;;;;5031118;28;20472;-67
2023/11/10 14:08:43;;;;;;;4.20;3.80;;;;;;;;;;5031183;28;20083;-67
2023/11/10 14:11:08;;;;;;;4.80;3.90;;;;;;;;;;5013229;28;20108;-67
2023/11/10 14:13:37;;;;;;;4.07;3.67;;;;;;;;;;5030780;28;20040;-67
2023/11/10 14:16:05;;;;;;;4.93;4.15;;;;;;;;;;5013217;28;20396;-66
2023/11/10 14:18:32;;;;;;;5.07;3.70;;;;;;;;;;5030939;28;20029;-66
2023/11/10 14:20:58;;;;;;;6.45;3.53;;;;;;;;;;5012787;28;20196;-67
2023/11/10 14:23:24;;;;;;;3.85;3.28;;;;;;;;;;5030645;28;20026;-66
2023/11/10 14:25:50;;;;;;;4.00;3.47;;;;;;;;;;4993197;28;20053;-67
2023/11/10 14:28:15;;;;;;;3.47;2.72;;;;;;;;;;5011138;28;20030;-67
2023/11/10 14:30:41;;;;;;;3.70;2.97;;;;;;;;;;5010933;28;20030;-67